• Join FlightAware (Why Join?)
  • Login
  • US Flag 
08:17AM EDT


 

Airport Tracker/Info


-or-


 

Live Flight TrackerFlight Track Log ✈ N53PB ✈ 24-Jul-2013 ✈ KBTL - KFNT

Flight Track Log - Related Links

Times and Time Zones

All times are in EDT time to prevent confusion due to time zone crossing. See the N53PB flight status page for this flight to view local times or setup timezone preferences in your user account.

Time Position Orientation Groundspeed Altitude Reporting Facility
EDT Latitude Longitude Course Direction KTS MPH feet Rate Location/Type
09:03AM 42.3819 -85.2281 59° Northeast 95 109 4,500  Level Chicago Center
09:04AM 42.3933 -85.1956 65° Northeast 95 109 5,200 480 Climbing Chicago Center
09:05AM 42.4064 -85.1611 63° Northeast 99 114 5,500 120 Climbing Chicago Center
09:06AM 42.4247 -85.1239 56° Northeast 112 129 5,500  Level Chicago Center
09:07AM 42.4099 -85.0186 59° Northeast  Level Estimated
09:07AM 42.4442 -85.0714 63° Northeast 126 145 5,500  Level Chicago Center
09:08AM 42.4271 -84.9799 59° Northeast  Level Estimated
09:08AM 42.4606 -85.0272 63° Northeast 129 148 5,500  Level Chicago Center
09:09AM 42.4783 -84.9853 60° Northeast 129 148 5,500  Level Chicago Center
09:10AM 42.4944 -84.9414 64° Northeast 130 150 5,500  Level Chicago Center
09:11AM 42.5119 -84.9000 60° Northeast 128 147 5,500  Level Chicago Center
09:12AM 42.5297 -84.8575 60° Northeast 129 148 5,500  Level Chicago Center
09:13AM 42.5497 -84.8058 62° Northeast 129 148 5,500  Level Chicago Center
09:14AM 42.5672 -84.7631 61° Northeast 130 150 5,500  Level Chicago Center
09:15AM 42.5833 -84.7200 63° Northeast 129 148 5,500  Level Chicago Center
09:16AM 42.6006 -84.6772 61° Northeast 129 148 5,500  Level Chicago Center
09:17AM 42.6172 -84.6358 61° Northeast 126 145 5,500  Level Chicago Center
09:18AM 42.6347 -84.5928 61° Northeast 128 147 5,500  Level Chicago Center
09:19AM 42.6547 -84.5417 62° Northeast 129 148 5,500  Level Chicago Center
09:20AM 42.6717 -84.5003 61° Northeast 128 147 5,500  Level Chicago Center